sensor_id;sensor_type;location;lat;lon;timestamp;P1;P2;P0
58420;PMS7003;44218;55.250;30.178;2022-07-17T00:04:48;4.8;4;3.2
58420;PMS7003;44218;55.250;30.178;2022-07-17T00:09:48;3.4;3.2;2.4
58420;PMS7003;44218;55.250;30.178;2022-07-17T00:14:48;3.2;3;2.4
58420;PMS7003;44218;55.250;30.178;2022-07-17T00:19:48;3.6;3.4;3.2
58420;PMS7003;44218;55.250;30.178;2022-07-17T00:24:48;3;3;2.8
58420;PMS7003;44218;55.250;30.178;2022-07-17T00:29:48;3.2;3;2.4
58420;PMS7003;44218;55.250;30.178;2022-07-17T00:34:48;3.4;2.8;2.4
58420;PMS7003;44218;55.250;30.178;2022-07-17T00:39:48;3.4;2.8;2.6
58420;PMS7003;44218;55.250;30.178;2022-07-17T00:44:48;4;3.3;2.8
58420;PMS7003;44218;55.250;30.178;2022-07-17T00:49:48;3.6;3.4;3
58420;PMS7003;44218;55.250;30.178;2022-07-17T00:54:48;3.8;3.4;3
58420;PMS7003;44218;55.250;30.178;2022-07-17T00:59:48;3.2;3.2;3
58420;PMS7003;44218;55.250;30.178;2022-07-17T01:04:48;4.2;3.8;3
58420;PMS7003;44218;55.250;30.178;2022-07-17T01:09:48;4;3.4;3.2
58420;PMS7003;44218;55.250;30.178;2022-07-17T01:14:48;3.6;3;2.4
58420;PMS7003;44218;55.250;30.178;2022-07-17T01:19:48;3.6;3.2;2.6
58420;PMS7003;44218;55.250;30.178;2022-07-17T01:24:48;3.6;3.4;2.8
58420;PMS7003;44218;55.250;30.178;2022-07-17T01:29:48;3.6;3.4;2.8
58420;PMS7003;44218;55.250;30.178;2022-07-17T01:34:48;3.4;3.4;2.8
58420;PMS7003;44218;55.250;30.178;2022-07-17T01:39:48;3.8;3.4;2.6
58420;PMS7003;44218;55.250;30.178;2022-07-17T01:44:48;4;3.5;3
58420;PMS7003;44218;55.250;30.178;2022-07-17T01:49:49;3.4;3.4;3
58420;PMS7003;44218;55.250;30.178;2022-07-17T01:54:48;3.4;3.4;3
58420;PMS7003;44218;55.250;30.178;2022-07-17T01:59:48;3.8;3.6;2.8
58420;PMS7003;44218;55.250;30.178;2022-07-17T02:04:48;3.2;2.8;2.2
58420;PMS7003;44218;55.250;30.178;2022-07-17T02:09:48;4.4;4.2;3.4
58420;PMS7003;44218;55.250;30.178;2022-07-17T02:14:48;4.8;4.8;3.6
58420;PMS7003;44218;55.250;30.178;2022-07-17T02:19:48;4;3.8;3
58420;PMS7003;44218;55.250;30.178;2022-07-17T02:24:48;4.6;4.4;3.8
58420;PMS7003;44218;55.250;30.178;2022-07-17T02:29:48;4.6;4.2;3.6
58420;PMS7003;44218;55.250;30.178;2022-07-17T02:34:48;4.4;4.4;3.8
58420;PMS7003;44218;55.250;30.178;2022-07-17T02:39:48;4.8;4.6;4
58420;PMS7003;44218;55.250;30.178;2022-07-17T02:44:48;5.5;5;4
58420;PMS7003;44218;55.250;30.178;2022-07-17T02:49:48;4.8;4.4;3.8
58420;PMS7003;44218;55.250;30.178;2022-07-17T02:54:48;4.6;4.4;4
58420;PMS7003;44218;55.250;30.178;2022-07-17T02:59:48;4.6;4.4;3.6
58420;PMS7003;44218;55.250;30.178;2022-07-17T03:04:48;5.2;4.8;4.2
58420;PMS7003;44218;55.250;30.178;2022-07-17T03:09:48;4.8;4.4;3.8
58420;PMS7003;44218;55.250;30.178;2022-07-17T03:14:48;5.2;4.4;3.8
58420;PMS7003;44218;55.250;30.178;2022-07-17T03:19:48;4.2;4;3.4
58420;PMS7003;44218;55.250;30.178;2022-07-17T03:24:48;4;4;3.2
58420;PMS7003;44218;55.250;30.178;2022-07-17T03:29:48;4.4;4.2;3.6
58420;PMS7003;44218;55.250;30.178;2022-07-17T03:34:48;3.8;3.2;2.8
58420;PMS7003;44218;55.250;30.178;2022-07-17T03:39:48;3.8;3.8;3.2
58420;PMS7003;44218;55.250;30.178;2022-07-17T03:44:48;3.5;3.5;3
58420;PMS7003;44218;55.250;30.178;2022-07-17T03:49:48;3;3;2.6
58420;PMS7003;44218;55.250;30.178;2022-07-17T03:54:48;4;4;3.8
58420;PMS7003;44218;55.250;30.178;2022-07-17T03:59:48;3.4;3.2;3
58420;PMS7003;44218;55.250;30.178;2022-07-17T04:04:48;3.4;3.2;2.8
58420;PMS7003;44218;55.250;30.178;2022-07-17T04:09:48;3.2;3.2;2.2
58420;PMS7003;44218;55.250;30.178;2022-07-17T04:14:48;3.8;3.6;2.6
58420;PMS7003;44218;55.250;30.178;2022-07-17T04:19:48;4.8;3.8;2.8
58420;PMS7003;44218;55.250;30.178;2022-07-17T04:24:48;3.4;3;2.4
58420;PMS7003;44218;55.250;30.178;2022-07-17T04:29:48;2.4;2.2;1.8
58420;PMS7003;44218;55.250;30.178;2022-07-17T04:34:48;2;2;1.6
58420;PMS7003;44218;55.250;30.178;2022-07-17T04:39:48;2.4;2.2;2
58420;PMS7003;44218;55.250;30.178;2022-07-17T04:44:48;2.8;2.4;2.2
58420;PMS7003;44218;55.250;30.178;2022-07-17T04:49:48;2;2;1.8
58420;PMS7003;44218;55.250;30.178;2022-07-17T04:54:48;3;2.6;2
58420;PMS7003;44218;55.250;30.178;2022-07-17T04:59:48;2.4;2.2;1.6
58420;PMS7003;44218;55.250;30.178;2022-07-17T05:04:48;2.8;2.6;2
58420;PMS7003;44218;55.250;30.178;2022-07-17T05:09:48;2.8;2.4;1.8
58420;PMS7003;44218;55.250;30.178;2022-07-17T05:14:48;2.4;2;1.4
58420;PMS7003;44218;55.250;30.178;2022-07-17T05:19:48;2.4;2.2;2
58420;PMS7003;44218;55.250;30.178;2022-07-17T05:24:48;2.2;2.2;1.6
58420;PMS7003;44218;55.250;30.178;2022-07-17T05:29:48;2.6;2.4;1.6
58420;PMS7003;44218;55.250;30.178;2022-07-17T05:34:48;2.6;2.4;1.8
58420;PMS7003;44218;55.250;30.178;2022-07-17T05:39:48;2.2;2;1.8
58420;PMS7003;44218;55.250;30.178;2022-07-17T05:44:48;3;2.6;1.8
58420;PMS7003;44218;55.250;30.178;2022-07-17T05:49:48;3;2.8;2
58420;PMS7003;44218;55.250;30.178;2022-07-17T05:54:48;3;2.4;1.8
58420;PMS7003;44218;55.250;30.178;2022-07-17T05:59:48;3;2.8;2.2
58420;PMS7003;44218;55.250;30.178;2022-07-17T06:04:48;3.4;3.2;2.4
58420;PMS7003;44218;55.250;30.178;2022-07-17T06:09:48;3.4;2.6;2.2
58420;PMS7003;44218;55.250;30.178;2022-07-17T06:14:48;2.6;2.6;2.2
58420;PMS7003;44218;55.250;30.178;2022-07-17T06:19:48;3;3;2.4
58420;PMS7003;44218;55.250;30.178;2022-07-17T06:24:48;3.2;3;2.6
58420;PMS7003;44218;55.250;30.178;2022-07-17T06:29:48;3.4;3.2;2.2
58420;PMS7003;44218;55.250;30.178;2022-07-17T06:34:48;3.8;3.8;2.8
58420;PMS7003;44218;55.250;30.178;2022-07-17T06:39:48;3.6;3.4;2.8
58420;PMS7003;44218;55.250;30.178;2022-07-17T06:44:48;4.4;4.2;3.2
58420;PMS7003;44218;55.250;30.178;2022-07-17T06:49:48;3.3;3.3;2.8
58420;PMS7003;44218;55.250;30.178;2022-07-17T06:54:48;3;2.6;2.2
58420;PMS7003;44218;55.250;30.178;2022-07-17T06:59:48;3.4;3;2.8
58420;PMS7003;44218;55.250;30.178;2022-07-17T07:04:48;2.2;2;1.6
58420;PMS7003;44218;55.250;30.178;2022-07-17T07:09:48;2.8;2.4;1.6
58420;PMS7003;44218;55.250;30.178;2022-07-17T07:14:48;2.4;2.4;1.6
58420;PMS7003;44218;55.250;30.178;2022-07-17T07:19:48;3;2.8;2.2
58420;PMS7003;44218;55.250;30.178;2022-07-17T07:24:48;3;2.8;2.4
58420;PMS7003;44218;55.250;30.178;2022-07-17T07:29:48;3.4;3.2;2.4
58420;PMS7003;44218;55.250;30.178;2022-07-17T07:34:48;2;2;1.6
58420;PMS7003;44218;55.250;30.178;2022-07-17T07:39:48;2.8;2.8;2.2
58420;PMS7003;44218;55.250;30.178;2022-07-17T07:44:48;2.6;2.4;2
58420;PMS7003;44218;55.250;30.178;2022-07-17T07:49:48;2.8;2.8;2.5
58420;PMS7003;44218;55.250;30.178;2022-07-17T07:54:48;1.6;1.6;1.2
58420;PMS7003;44218;55.250;30.178;2022-07-17T07:59:48;1.4;1.2;1
58420;PMS7003;44218;55.250;30.178;2022-07-17T08:04:48;1.4;1.2;1
58420;PMS7003;44218;55.250;30.178;2022-07-17T08:09:48;2.2;1.4;1
58420;PMS7003;44218;55.250;30.178;2022-07-17T08:14:48;1.2;1;0.4
58420;PMS7003;44218;55.250;30.178;2022-07-17T08:19:48;0.6;0.4;0.4
58420;PMS7003;44218;55.250;30.178;2022-07-17T08:24:48;0.6;0.6;0.4
58420;PMS7003;44218;55.250;30.178;2022-07-17T08:29:48;0.8;0.4;0.2
58420;PMS7003;44218;55.250;30.178;2022-07-17T08:34:48;1.2;0.8;0.6
58420;PMS7003;44218;55.250;30.178;2022-07-17T08:39:48;0.6;0.6;0.2
58420;PMS7003;44218;55.250;30.178;2022-07-17T08:44:48;0.6;0.6;0.6
58420;PMS7003;44218;55.250;30.178;2022-07-17T08:49:48;1;0.8;0.8
58420;PMS7003;44218;55.250;30.178;2022-07-17T08:54:48;1.6;1;0.8
58420;PMS7003;44218;55.250;30.178;2022-07-17T08:59:48;0.2;0.2;0.2
58420;PMS7003;44218;55.250;30.178;2022-07-17T09:04:55;0.4;0.2;0.2
58420;PMS7003;44218;55.250;30.178;2022-07-17T09:09:50;0.4;0.4;0.4
58420;PMS7003;44218;55.250;30.178;2022-07-17T09:14:48;0.6;0.2;0.2
58420;PMS7003;44218;55.250;30.178;2022-07-17T09:19:48;0.4;0.4;0.4
58420;PMS7003;44218;55.250;30.178;2022-07-17T09:24:49;1;0.8;0.8
58420;PMS7003;44218;55.250;30.178;2022-07-17T09:29:52;1;0.4;0.4
58420;PMS7003;44218;55.250;30.178;2022-07-17T09:34:48;0.6;0.4;0.4
58420;PMS7003;44218;55.250;30.178;2022-07-17T09:39:48;0.4;0.2;0
58420;PMS7003;44218;55.250;30.178;2022-07-17T09:45:04;0.4;0.4;0.4
58420;PMS7003;44218;55.250;30.178;2022-07-17T09:49:48;0.8;0.6;0.4
58420;PMS7003;44218;55.250;30.178;2022-07-17T09:54:48;1;1;0.8
58420;PMS7003;44218;55.250;30.178;2022-07-17T09:59:48;1;0.8;0.8
58420;PMS7003;44218;55.250;30.178;2022-07-17T10:04:48;0.8;0.8;0.8
58420;PMS7003;44218;55.250;30.178;2022-07-17T10:09:48;1.2;0.8;0.6
58420;PMS7003;44218;55.250;30.178;2022-07-17T10:14:48;0.8;0.6;0.4
58420;PMS7003;44218;55.250;30.178;2022-07-17T10:19:49;1;0.8;0.6
58420;PMS7003;44218;55.250;30.178;2022-07-17T10:24:49;0.6;0.6;0.6
58420;PMS7003;44218;55.250;30.178;2022-07-17T10:29:58;1.4;1.2;1
58420;PMS7003;44218;55.250;30.178;2022-07-17T10:34:53;1.3;1;0.8
58420;PMS7003;44218;55.250;30.178;2022-07-17T10:39:56;1.2;1.2;1
58420;PMS7003;44218;55.250;30.178;2022-07-17T10:44:48;1;1;1
58420;PMS7003;44218;55.250;30.178;2022-07-17T10:49:48;1;1;0.8
58420;PMS7003;44218;55.250;30.178;2022-07-17T10:54:48;1.2;1.2;0.8
58420;PMS7003;44218;55.250;30.178;2022-07-17T10:59:48;1.8;1.6;1.6
58420;PMS7003;44218;55.250;30.178;2022-07-17T11:04:48;1.6;1.4;1.2
58420;PMS7003;44218;55.250;30.178;2022-07-17T11:09:48;1.8;1.6;1.4
58420;PMS7003;44218;55.250;30.178;2022-07-17T11:14:48;1.8;1.4;1.4
58420;PMS7003;44218;55.250;30.178;2022-07-17T11:19:48;0.6;0.6;0.6
58420;PMS7003;44218;55.250;30.178;2022-07-17T11:24:48;1.2;1;0.8
58420;PMS7003;44218;55.250;30.178;2022-07-17T11:29:48;1.2;1.2;1.2
58420;PMS7003;44218;55.250;30.178;2022-07-17T11:34:48;1.3;1;1
58420;PMS7003;44218;55.250;30.178;2022-07-17T11:39:48;1;0.6;0.6
58420;PMS7003;44218;55.250;30.178;2022-07-17T11:44:49;1.2;1.2;0.6
58420;PMS7003;44218;55.250;30.178;2022-07-17T11:49:48;1.4;1.2;1
58420;PMS7003;44218;55.250;30.178;2022-07-17T11:54:49;0.8;0.4;0.4
58420;PMS7003;44218;55.250;30.178;2022-07-17T11:59:48;0.4;0.4;0.4
58420;PMS7003;44218;55.250;30.178;2022-07-17T12:04:49;1.4;1.2;0.8
58420;PMS7003;44218;55.250;30.178;2022-07-17T12:09:48;0.6;0.6;0.4
58420;PMS7003;44218;55.250;30.178;2022-07-17T12:14:56;1;1;1
58420;PMS7003;44218;55.250;30.178;2022-07-17T12:19:48;1.4;1;0.8
58420;PMS7003;44218;55.250;30.178;2022-07-17T12:24:48;1.8;1.4;1
58420;PMS7003;44218;55.250;30.178;2022-07-17T12:29:48;1.8;1.8;1.6
58420;PMS7003;44218;55.250;30.178;2022-07-17T12:34:48;0.8;0.8;0.6
58420;PMS7003;44218;55.250;30.178;2022-07-17T12:39:48;1;0.5;0.5
58420;PMS7003;44218;55.250;30.178;2022-07-17T12:44:48;1.2;1;0.6
58420;PMS7003;44218;55.250;30.178;2022-07-17T12:49:48;1.2;1;0.6
58420;PMS7003;44218;55.250;30.178;2022-07-17T12:54:48;0.6;0.6;0.4
58420;PMS7003;44218;55.250;30.178;2022-07-17T12:59:48;0.6;0.6;0.6
58420;PMS7003;44218;55.250;30.178;2022-07-17T13:04:48;1;0.8;0.6
58420;PMS7003;44218;55.250;30.178;2022-07-17T13:09:48;0.4;0.4;0.4
58420;PMS7003;44218;55.250;30.178;2022-07-17T13:14:48;1.6;1.4;1
58420;PMS7003;44218;55.250;30.178;2022-07-17T13:19:48;1.4;1.2;1.2
58420;PMS7003;44218;55.250;30.178;2022-07-17T13:24:48;2;2;1.6
58420;PMS7003;44218;55.250;30.178;2022-07-17T13:29:48;1;0.6;0.4
58420;PMS7003;44218;55.250;30.178;2022-07-17T13:34:48;1.8;1.4;1.2
58420;PMS7003;44218;55.250;30.178;2022-07-17T13:39:48;1;1;1
58420;PMS7003;44218;55.250;30.178;2022-07-17T13:44:48;1.4;1.2;1.2
58420;PMS7003;44218;55.250;30.178;2022-07-17T13:49:48;1.8;1.6;1.6
58420;PMS7003;44218;55.250;30.178;2022-07-17T13:54:48;1.6;1.6;1.4
58420;PMS7003;44218;55.250;30.178;2022-07-17T13:59:48;2.4;1.8;1.6
58420;PMS7003;44218;55.250;30.178;2022-07-17T14:04:48;1;1;0.8
58420;PMS7003;44218;55.250;30.178;2022-07-17T14:09:48;0.2;0.2;0.2
58420;PMS7003;44218;55.250;30.178;2022-07-17T14:14:48;1.5;1;1
58420;PMS7003;44218;55.250;30.178;2022-07-17T14:19:48;2.6;2.4;2.2
58420;PMS7003;44218;55.250;30.178;2022-07-17T14:24:48;1;1;0.8
58420;PMS7003;44218;55.250;30.178;2022-07-17T14:29:48;1.2;1.2;1
58420;PMS7003;44218;55.250;30.178;2022-07-17T14:34:48;2.2;2;1.8
58420;PMS7003;44218;55.250;30.178;2022-07-17T14:39:48;1.8;1.8;1.6
58420;PMS7003;44218;55.250;30.178;2022-07-17T14:44:48;2.6;2.6;2.2
58420;PMS7003;44218;55.250;30.178;2022-07-17T14:49:48;1.8;1.8;1.6
58420;PMS7003;44218;55.250;30.178;2022-07-17T14:54:48;2.6;2.6;2.2
58420;PMS7003;44218;55.250;30.178;2022-07-17T14:59:48;1.8;1.8;1.8
58420;PMS7003;44218;55.250;30.178;2022-07-17T15:04:48;1.8;1.5;1.3
58420;PMS7003;44218;55.250;30.178;2022-07-17T15:09:48;2;1.8;1.8
58420;PMS7003;44218;55.250;30.178;2022-07-17T15:14:48;1.8;1.8;1.8
58420;PMS7003;44218;55.250;30.178;2022-07-17T15:19:48;1.4;1.4;1.4
58420;PMS7003;44218;55.250;30.178;2022-07-17T15:24:48;1.8;1.8;1.6
58420;PMS7003;44218;55.250;30.178;2022-07-17T15:29:48;2.6;2.4;2.2
58420;PMS7003;44218;55.250;30.178;2022-07-17T15:34:48;2.8;2.6;2.2
58420;PMS7003;44218;55.250;30.178;2022-07-17T15:39:48;2.2;2;1.8
58420;PMS7003;44218;55.250;30.178;2022-07-17T15:44:48;2;1.8;1.6
58420;PMS7003;44218;55.250;30.178;2022-07-17T15:49:48;3.2;2.8;2.2
58420;PMS7003;44218;55.250;30.178;2022-07-17T15:54:48;1.4;1.4;1.2
58420;PMS7003;44218;55.250;30.178;2022-07-17T15:59:48;1.2;1.2;1
58420;PMS7003;44218;55.250;30.178;2022-07-17T16:04:48;1;0.8;0.8
58420;PMS7003;44218;55.250;30.178;2022-07-17T16:09:48;1;0.8;0.8
58420;PMS7003;44218;55.250;30.178;2022-07-17T16:14:48;1.6;1.4;1
58420;PMS7003;44218;55.250;30.178;2022-07-17T16:19:48;2.6;2;1.8
58420;PMS7003;44218;55.250;30.178;2022-07-17T16:24:48;1.4;1.4;0.6
58420;PMS7003;44218;55.250;30.178;2022-07-17T16:29:48;1.2;1.2;1.2
58420;PMS7003;44218;55.250;30.178;2022-07-17T16:34:48;1.4;1.2;0.8
58420;PMS7003;44218;55.250;30.178;2022-07-17T16:39:48;0.8;0.8;0.6
58420;PMS7003;44218;55.250;30.178;2022-07-17T16:44:48;1.4;1.2;1
58420;PMS7003;44218;55.250;30.178;2022-07-17T16:49:48;1.4;1.4;1
58420;PMS7003;44218;55.250;30.178;2022-07-17T16:54:48;2.4;2;1.6
58420;PMS7003;44218;55.250;30.178;2022-07-17T16:59:48;4.4;3.8;3.2
58420;PMS7003;44218;55.250;30.178;2022-07-17T17:04:48;4;4;2.8
58420;PMS7003;44218;55.250;30.178;2022-07-17T17:09:48;3;3;2.2
58420;PMS7003;44218;55.250;30.178;2022-07-17T17:14:48;2.2;2.2;1.8
58420;PMS7003;44218;55.250;30.178;2022-07-17T17:19:48;1.4;1.2;1
58420;PMS7003;44218;55.250;30.178;2022-07-17T17:24:48;1.8;1.6;1.4
58420;PMS7003;44218;55.250;30.178;2022-07-17T17:29:48;2.2;2;1.6
58420;PMS7003;44218;55.250;30.178;2022-07-17T17:34:48;1.8;1.6;0.8
58420;PMS7003;44218;55.250;30.178;2022-07-17T17:39:48;1.8;1.8;1.8
58420;PMS7003;44218;55.250;30.178;2022-07-17T17:44:48;2.4;2;1.4
58420;PMS7003;44218;55.250;30.178;2022-07-17T17:49:48;2.2;1.6;1.4
58420;PMS7003;44218;55.250;30.178;2022-07-17T17:54:48;2.2;1.8;1.6
58420;PMS7003;44218;55.250;30.178;2022-07-17T17:59:48;1.8;1.4;1.2
58420;PMS7003;44218;55.250;30.178;2022-07-17T18:04:48;2.5;1.8;1.8
58420;PMS7003;44218;55.250;30.178;2022-07-17T18:09:48;1.4;1.2;1
58420;PMS7003;44218;55.250;30.178;2022-07-17T18:14:48;1.4;1.2;0.8
58420;PMS7003;44218;55.250;30.178;2022-07-17T18:19:48;1.8;1.4;1
58420;PMS7003;44218;55.250;30.178;2022-07-17T18:24:48;1;0.8;0.8
58420;PMS7003;44218;55.250;30.178;2022-07-17T18:29:48;2.4;2;1.2
58420;PMS7003;44218;55.250;30.178;2022-07-17T18:34:48;1.4;1.2;0.8
58420;PMS7003;44218;55.250;30.178;2022-07-17T18:39:48;1.6;1.4;1.2
58420;PMS7003;44218;55.250;30.178;2022-07-17T18:44:48;1;1;0.8
58420;PMS7003;44218;55.250;30.178;2022-07-17T18:49:48;2.2;1.8;1.6
58420;PMS7003;44218;55.250;30.178;2022-07-17T18:54:48;1.6;1.6;1.2
58420;PMS7003;44218;55.250;30.178;2022-07-17T18:59:48;1.8;1.6;1
58420;PMS7003;44218;55.250;30.178;2022-07-17T19:04:48;2.3;2;1.3
58420;PMS7003;44218;55.250;30.178;2022-07-17T19:09:48;1.8;1.6;1.6
58420;PMS7003;44218;55.250;30.178;2022-07-17T19:14:48;2.2;2;1.6
58420;PMS7003;44218;55.250;30.178;2022-07-17T19:19:48;2.8;2;1.8
58420;PMS7003;44218;55.250;30.178;2022-07-17T19:24:48;2.2;1.8;1.4
58420;PMS7003;44218;55.250;30.178;2022-07-17T19:29:48;2.2;1.8;1.4
58420;PMS7003;44218;55.250;30.178;2022-07-17T19:34:48;1.6;1.6;1.2
58420;PMS7003;44218;55.250;30.178;2022-07-17T19:39:48;1.6;1.6;0.8
58420;PMS7003;44218;55.250;30.178;2022-07-17T19:44:48;1.6;1.2;1
58420;PMS7003;44218;55.250;30.178;2022-07-17T19:49:48;1.4;1.2;1
58420;PMS7003;44218;55.250;30.178;2022-07-17T19:54:48;1.8;1.4;1.2
58420;PMS7003;44218;55.250;30.178;2022-07-17T19:59:48;0.6;0.6;0.4
58420;PMS7003;44218;55.250;30.178;2022-07-17T20:04:48;2;1.3;1.3
58420;PMS7003;44218;55.250;30.178;2022-07-17T20:09:48;1.6;1.4;1
58420;PMS7003;44218;55.250;30.178;2022-07-17T20:14:48;1.2;0.8;0.8
58420;PMS7003;44218;55.250;30.178;2022-07-17T20:19:48;1.2;1;0.8
58420;PMS7003;44218;55.250;30.178;2022-07-17T20:24:48;0.6;0.2;0.2
58420;PMS7003;44218;55.250;30.178;2022-07-17T20:29:48;1;0.8;0.6
58420;PMS7003;44218;55.250;30.178;2022-07-17T20:34:48;1.6;1.6;1.4
58420;PMS7003;44218;55.250;30.178;2022-07-17T20:39:48;1.4;1.2;1.2
58420;PMS7003;44218;55.250;30.178;2022-07-17T20:44:48;1.4;1.2;1.2
58420;PMS7003;44218;55.250;30.178;2022-07-17T20:49:48;2.2;2.2;1.8
58420;PMS7003;44218;55.250;30.178;2022-07-17T20:54:48;1.8;1.6;1.4
58420;PMS7003;44218;55.250;30.178;2022-07-17T20:59:48;1.8;1.8;1.8
58420;PMS7003;44218;55.250;30.178;2022-07-17T21:04:48;2;2;2
58420;PMS7003;44218;55.250;30.178;2022-07-17T21:09:48;2.3;1.5;1.5
58420;PMS7003;44218;55.250;30.178;2022-07-17T21:14:48;1.8;1.8;1.8
58420;PMS7003;44218;55.250;30.178;2022-07-17T21:19:48;2.6;2.2;1.8
58420;PMS7003;44218;55.250;30.178;2022-07-17T21:24:48;2.2;1.8;1.6
58420;PMS7003;44218;55.250;30.178;2022-07-17T21:29:48;2;2;1.8
58420;PMS7003;44218;55.250;30.178;2022-07-17T21:34:48;1.8;1.8;1.6
58420;PMS7003;44218;55.250;30.178;2022-07-17T21:39:48;2;2;1.4
58420;PMS7003;44218;55.250;30.178;2022-07-17T21:44:48;1.8;1.8;1.8
58420;PMS7003;44218;55.250;30.178;2022-07-17T21:49:48;1.8;1.8;1.4
58420;PMS7003;44218;55.250;30.178;2022-07-17T21:54:48;2;1.8;1.8
58420;PMS7003;44218;55.250;30.178;2022-07-17T21:59:48;2;1.8;1.6
58420;PMS7003;44218;55.250;30.178;2022-07-17T22:04:48;2;2;1.8
58420;PMS7003;44218;55.250;30.178;2022-07-17T22:09:48;1.8;1.8;1.8
58420;PMS7003;44218;55.250;30.178;2022-07-17T22:14:48;1.8;1.6;1.4
58420;PMS7003;44218;55.250;30.178;2022-07-17T22:19:48;2;1.8;1.6
58420;PMS7003;44218;55.250;30.178;2022-07-17T22:24:48;1.8;1.6;1.4
58420;PMS7003;44218;55.250;30.178;2022-07-17T22:29:48;1.8;1.6;1.4
58420;PMS7003;44218;55.250;30.178;2022-07-17T22:34:48;1.8;1.8;1.8
58420;PMS7003;44218;55.250;30.178;2022-07-17T22:39:48;1.4;1.4;1
58420;PMS7003;44218;55.250;30.178;2022-07-17T22:44:48;1.4;1.4;1.4
58420;PMS7003;44218;55.250;30.178;2022-07-17T22:49:48;1.6;1.6;1.6
58420;PMS7003;44218;55.250;30.178;2022-07-17T22:54:48;1.6;1.6;1.6
58420;PMS7003;44218;55.250;30.178;2022-07-17T22:59:48;1.4;1.4;1.4
58420;PMS7003;44218;55.250;30.178;2022-07-17T23:04:48;1.6;1.6;1.2
58420;PMS7003;44218;55.250;30.178;2022-07-17T23:09:48;1.5;1.5;1.5
58420;PMS7003;44218;55.250;30.178;2022-07-17T23:14:48;1.4;1.4;1
58420;PMS7003;44218;55.250;30.178;2022-07-17T23:19:48;1.4;1.2;1
58420;PMS7003;44218;55.250;30.178;2022-07-17T23:24:48;1.2;1.2;1
58420;PMS7003;44218;55.250;30.178;2022-07-17T23:29:48;1.4;1.4;1.2
58420;PMS7003;44218;55.250;30.178;2022-07-17T23:34:52;1.4;1.4;1.2
58420;PMS7003;44218;55.250;30.178;2022-07-17T23:39:48;1.2;1.2;1
58420;PMS7003;44218;55.250;30.178;2022-07-17T23:44:48;1.2;1;1
58420;PMS7003;44218;55.250;30.178;2022-07-17T23:49:48;1.4;1;0.8
58420;PMS7003;44218;55.250;30.178;2022-07-17T23:54:48;1.4;1.2;0.8
58420;PMS7003;44218;55.250;30.178;2022-07-17T23:59:48;1.6;1.4;1.2
